»·PEaware :: UAL1928 KPDX-KMRY

UAL1928 :: KPDX-KMRY

FLIGHT INFORMATION

Flight Status: Arrived
Operator:
United Airlines
More flights by this operator :: More flights under this callsign
Pilot: Chris C. (10181)
Aircraft: BOEING 737-200
(B732)
More flights by this aircraft type
Origin: KPDX Portland Intl
United States
Destination: KMRY Monterey Peninsula
United States
More flights between these airports :: More routes between these airports
Route: +PTLD1 EUG J126 SNS
File this flight plan on PilotEdge
Remarks: Happy Holidays!
Altitude:
(Current/Filed)
29,000ft
Speed:
(Current/Filed)
480kts
Departed: 22-Dec-19 05:21 PM
Arrived: 22-Dec-19 07:00 PM
Distance/Time
Traveled:
541nm/1:39
Distance/Time
To Go:
Arrived

Flight Plot

Page will automatically refresh every two minutes.

Flight plan parsing failed; only flown route is shown


Map Options




Map Legend


Flown Route
Filed Route
Departure Airport
Arrival Airport
Navaid (VOR, NDB)
Fix

Horizontal Profiles

Position Reports

Time Latitude Longitude Heading Altitude Ground
Speed
22-Dec-19 16:36 45.589837 -122.590583 225 38ft 0kts
22-Dec-19 16:37 45.589837 -122.590583 225 38ft 0kts
22-Dec-19 16:38 45.589837 -122.590583 225 38ft 0kts
22-Dec-19 16:39 45.589837 -122.590583 225 38ft 0kts
22-Dec-19 16:40 45.589837 -122.590583 225 38ft 0kts
22-Dec-19 16:41 45.589837 -122.590583 225 38ft 0kts
22-Dec-19 16:42 45.589837 -122.590583 225 38ft 0kts
22-Dec-19 16:43 45.589837 -122.590583 225 38ft 0kts
22-Dec-19 16:44 45.589837 -122.590583 225 38ft 0kts
22-Dec-19 16:45 45.589837 -122.590583 225 38ft 0kts
22-Dec-19 16:46 45.589837 -122.590583 225 38ft 0kts
22-Dec-19 16:47 45.589837 -122.590583 225 38ft 0kts
22-Dec-19 16:48 45.589837 -122.590583 225 38ft 0kts
22-Dec-19 16:49 45.589837 -122.590583 225 38ft 0kts
22-Dec-19 16:50 45.589837 -122.590583 225 38ft 0kts
22-Dec-19 16:51 45.589837 -122.590583 225 38ft 0kts
22-Dec-19 16:52 45.589837 -122.590583 225 38ft 0kts
22-Dec-19 16:53 45.589837 -122.590583 225 38ft 0kts
22-Dec-19 16:54 45.589837 -122.590583 225 38ft 0kts
22-Dec-19 16:55 45.589837 -122.590583 225 38ft 0kts
22-Dec-19 16:56 45.589837 -122.590583 225 38ft 0kts
22-Dec-19 16:57 45.589837 -122.590583 225 38ft 0kts
22-Dec-19 16:58 45.589837 -122.590583 225 38ft 0kts
22-Dec-19 16:59 45.589837 -122.590583 225 38ft 0kts
22-Dec-19 17:00 45.589837 -122.590583 225 38ft 0kts
22-Dec-19 17:01 45.589837 -122.590583 225 38ft 0kts
22-Dec-19 17:02 45.589837 -122.590583 225 38ft 0kts
22-Dec-19 17:03 45.589837 -122.590583 225 38ft 0kts
22-Dec-19 17:04 45.589837 -122.590583 225 38ft 0kts
22-Dec-19 17:05 45.589837 -122.590583 225 38ft 0kts
22-Dec-19 17:06 45.589837 -122.590583 225 38ft 0kts
22-Dec-19 17:07 45.589837 -122.590583 225 38ft 0kts
22-Dec-19 17:08 45.589837 -122.590583 225 38ft 0kts
22-Dec-19 17:09 45.589834 -122.590587 225 38ft 0kts
22-Dec-19 17:10 45.590292 -122.590315 178 38ft 2kts
22-Dec-19 17:11 45.590799 -122.590700 123 38ft 2kts
22-Dec-19 17:12 45.590842 -122.590800 118 38ft 0kts
22-Dec-19 17:13 45.590842 -122.590800 118 38ft 0kts
22-Dec-19 17:14 45.590642 -122.590288 118 38ft 10kts
22-Dec-19 17:15 45.589543 -122.586522 85 38ft 14kts
22-Dec-19 17:16 45.587431 -122.579912 118 38ft 20kts
22-Dec-19 17:17 45.584514 -122.572398 118 38ft 21kts
22-Dec-19 17:18 45.582735 -122.567494 73 38ft 0kts
22-Dec-19 17:19 45.582735 -122.567494 73 38ft 0kts
22-Dec-19 17:20 45.587458 -122.576800 298 38ft 125kts
22-Dec-19 17:21 45.608401 -122.632910 297 1998ft 169kts
22-Dec-19 17:22 45.629134 -122.701893 291 3273ft 237kts
22-Dec-19 17:23 45.593220 -122.766769 195 6354ft 259kts
22-Dec-19 17:24 45.522329 -122.792526 195 9163ft 272kts
22-Dec-19 17:25 45.444131 -122.818529 192 10966ft 315kts
22-Dec-19 17:26 45.357244 -122.846683 192 13384ft 325kts
22-Dec-19 17:27 45.269541 -122.875975 192 15779ft 325kts
22-Dec-19 17:28 45.182067 -122.905298 192 18019ft 321kts
22-Dec-19 17:29 45.095794 -122.933982 192 20029ft 317kts
22-Dec-19 17:30 45.010174 -122.962214 193 21832ft 315kts
22-Dec-19 17:31 44.921527 -122.991251 194 22867ft 337kts
22-Dec-19 17:32 44.828505 -123.021597 194 24088ft 348kts
22-Dec-19 17:33 44.732543 -123.052723 194 24992ft 365kts
22-Dec-19 17:34 44.630780 -123.085624 194 25711ft 382kts
22-Dec-19 17:35 44.525415 -123.119499 194 26544ft 393kts
22-Dec-19 17:36 44.418292 -123.153705 193 27413ft 397kts
22-Dec-19 17:37 44.308218 -123.165388 181 28240ft 399kts
22-Dec-19 17:38 44.196720 -123.163748 181 28800ft 405kts
22-Dec-19 17:39 44.081699 -123.162131 180 28802ft 422kts
22-Dec-19 17:40 43.963364 -123.174703 190 28801ft 434kts
22-Dec-19 17:41 43.845444 -123.175898 170 28801ft 448kts
22-Dec-19 17:42 43.721813 -123.141969 170 28799ft 457kts
22-Dec-19 17:43 43.595987 -123.107603 170 28795ft 463kts
22-Dec-19 17:44 43.468873 -123.073013 170 28789ft 466kts
22-Dec-19 17:46 43.343837 -123.038983 171 28787ft 452kts
22-Dec-19 17:47 43.221441 -123.005658 171 28788ft 445kts
22-Dec-19 17:48 43.099991 -122.983132 175 28788ft 437kts
22-Dec-19 17:49 42.979780 -122.963229 175 28783ft 432kts
22-Dec-19 17:50 42.864720 -122.942983 175 28769ft 429kts
22-Dec-19 17:51 42.746447 -122.920797 175 28762ft 426kts
22-Dec-19 17:52 42.629423 -122.898311 175 28761ft 423kts
22-Dec-19 17:53 42.513508 -122.875528 175 28762ft 421kts
22-Dec-19 17:54 42.397708 -122.852456 175 28761ft 418kts
22-Dec-19 17:55 42.282930 -122.829489 175 28761ft 416kts
22-Dec-19 17:56 42.168111 -122.806439 175 28761ft 414kts
22-Dec-19 17:57 42.054275 -122.783403 174 28761ft 413kts
22-Dec-19 17:58 41.940296 -122.760400 174 28762ft 412kts
22-Dec-19 17:59 41.828755 -122.737806 174 28762ft 412kts
22-Dec-19 18:00 41.715181 -122.711648 172 28761ft 413kts
22-Dec-19 18:01 41.603213 -122.672802 165 28762ft 417kts
22-Dec-19 18:02 41.493443 -122.621214 164 28761ft 418kts
22-Dec-19 18:02 41.401872 -122.577941 164 28761ft 418kts
22-Dec-19 18:04 41.273138 -122.516950 164 28762ft 418kts
22-Dec-19 18:05 41.162566 -122.470140 168 28808ft 414kts
22-Dec-19 18:05 41.069332 -122.440510 171 28846ft 411kts
22-Dec-19 18:06 40.957141 -122.411559 173 28855ft 409kts
22-Dec-19 18:08 40.831034 -122.378426 173 28854ft 409kts
22-Dec-19 18:08 40.737411 -122.356508 177 28852ft 407kts
22-Dec-19 18:09 40.624359 -122.341376 178 28852ft 406kts
22-Dec-19 18:11 40.493212 -122.324102 178 28852ft 405kts
22-Dec-19 18:11 40.399506 -122.311684 178 28856ft 404kts
22-Dec-19 18:12 40.287960 -122.293316 171 28862ft 408kts
22-Dec-19 18:13 40.178206 -122.253582 169 28871ft 408kts
22-Dec-19 18:14 40.068868 -122.213906 167 28871ft 409kts
22-Dec-19 18:15 39.959961 -122.172555 169 28870ft 407kts
22-Dec-19 18:16 39.873918 -122.136995 164 28875ft 411kts
22-Dec-19 18:17 39.766489 -122.082258 165 28871ft 411kts
22-Dec-19 18:18 39.658806 -122.032564 168 28871ft 410kts
22-Dec-19 18:19 39.549141 -121.988630 168 28871ft 410kts
22-Dec-19 18:20 39.439565 -121.945018 168 28879ft 410kts
22-Dec-19 18:21 39.330442 -121.901561 168 28889ft 410kts
22-Dec-19 18:22 39.221313 -121.858043 168 28874ft 411kts
22-Dec-19 18:23 39.112436 -121.814673 168 28871ft 410kts
22-Dec-19 18:24 39.003734 -121.771416 168 28873ft 410kts
22-Dec-19 18:25 38.895693 -121.727744 168 28877ft 409kts
22-Dec-19 18:26 38.786959 -121.683073 168 28872ft 410kts
22-Dec-19 18:27 38.685988 -121.641603 168 28879ft 411kts
22-Dec-19 18:28 38.576976 -121.596734 167 28890ft 411kts
22-Dec-19 18:29 38.468044 -121.551942 167 28890ft 411kts
22-Dec-19 18:30 38.359927 -121.533658 184 27833ft 382kts
22-Dec-19 18:31 38.257760 -121.536296 186 26162ft 355kts
22-Dec-19 18:32 38.162013 -121.545993 189 24627ft 335kts
22-Dec-19 18:33 38.070430 -121.558310 189 23913ft 339kts
22-Dec-19 18:34 37.973539 -121.568922 188 23917ft 360kts
22-Dec-19 18:35 37.872277 -121.578019 187 23924ft 376kts
22-Dec-19 18:36 37.766044 -121.587879 187 23923ft 390kts
22-Dec-19 18:37 37.658221 -121.597823 186 22598ft 380kts
22-Dec-19 18:38 37.554011 -121.597016 182 20417ft 368kts
22-Dec-19 18:39 37.453125 -121.590229 180 18256ft 357kts
22-Dec-19 18:40 37.354879 -121.583576 180 16133ft 349kts
22-Dec-19 18:41 37.258981 -121.578642 182 14062ft 340kts
22-Dec-19 18:42 37.168217 -121.577794 182 13065ft 305kts
22-Dec-19 18:43 37.085020 -121.578394 185 11559ft 298kts
22-Dec-19 18:44 37.004419 -121.587072 187 9762ft 276kts
22-Dec-19 18:45 36.931616 -121.595631 187 7742ft 255kts
22-Dec-19 18:46 36.870505 -121.624878 230 5667ft 240kts
22-Dec-19 18:47 36.828472 -121.690479 232 4064ft 242kts
22-Dec-19 18:48 36.803458 -121.764105 252 3151ft 232kts
22-Dec-19 18:49 36.784530 -121.839192 252 2970ft 223kts
22-Dec-19 18:50 36.766357 -121.912360 252 2974ft 217kts
22-Dec-19 18:51 36.748999 -121.982744 253 2968ft 196kts
22-Dec-19 18:52 36.733867 -122.043368 253 2985ft 180kts
22-Dec-19 18:53 36.715840 -122.101040 213 2985ft 182kts
22-Dec-19 18:54 36.674338 -122.071728 133 3008ft 187kts
22-Dec-19 18:55 36.647236 -122.019985 111 2884ft 169kts
22-Dec-19 18:56 36.629245 -121.965862 117 2011ft 165kts
22-Dec-19 18:57 36.611052 -121.914898 115 1130ft 156kts
22-Dec-19 18:58 36.594689 -121.867029 112 354ft 143kts
22-Dec-19 18:59 36.585592 -121.841143 175 217ft 15kts
22-Dec-19 19:00 36.585438 -121.842861 293 213ft 0kts
22-Dec-19 19:01 36.587263 -121.847681 291 198ft 20kts
22-Dec-19 19:02 36.587538 -121.849959 230 195ft 0kts
22-Dec-19 19:03 36.587496 -121.850033 235 196ft 0kts

Navigation Log

Ident Type
Flight plan parsing failed, navigation log unavailable